createdAt,value
2022-11-16T00:01:10.641Z,13.90
2022-11-16T00:03:37.336Z,13.90
2022-11-16T00:06:07.318Z,13.90
2022-11-16T00:08:37.168Z,13.80
2022-11-16T00:11:09.039Z,13.80
2022-11-16T00:13:36.877Z,13.80
2022-11-16T00:16:04.972Z,13.90
2022-11-16T00:18:32.643Z,13.90
2022-11-16T00:21:01.084Z,13.90
2022-11-16T00:23:27.953Z,13.90
2022-11-16T00:25:54.745Z,13.90
2022-11-16T00:28:21.489Z,13.90
2022-11-16T00:30:48.215Z,13.90
2022-11-16T00:33:16.425Z,13.90
2022-11-16T00:35:43.246Z,13.90
2022-11-16T00:38:11.249Z,13.90
2022-11-16T00:40:38.017Z,13.90
2022-11-16T00:43:06.766Z,13.90
2022-11-16T00:45:33.886Z,13.80
2022-11-16T00:48:02.666Z,13.80
2022-11-16T00:50:29.327Z,13.90
2022-11-16T00:52:56.105Z,13.90
2022-11-16T00:55:22.891Z,13.80
2022-11-16T00:57:49.626Z,13.90
2022-11-16T01:00:17.117Z,13.90
2022-11-16T01:02:43.839Z,13.80
2022-11-16T01:05:11.652Z,13.80
2022-11-16T01:07:39.672Z,13.80
2022-11-16T01:10:12.348Z,13.80
2022-11-16T01:12:39.207Z,13.80
2022-11-16T01:15:10.918Z,13.80
2022-11-16T01:17:39.330Z,13.90
2022-11-16T01:20:08.939Z,13.90
2022-11-16T01:22:36.045Z,13.90
2022-11-16T01:25:03.056Z,13.90
2022-11-16T01:27:29.769Z,13.90
2022-11-16T01:29:57.680Z,13.80
2022-11-16T01:32:25.913Z,13.90
2022-11-16T01:34:52.896Z,13.80
2022-11-16T01:37:20.117Z,13.80
2022-11-16T01:39:49.318Z,13.80
2022-11-16T01:42:18.969Z,13.80
2022-11-16T01:44:45.703Z,13.70
2022-11-16T01:47:16.092Z,13.80
2022-11-16T01:49:54.353Z,13.70
2022-11-16T01:52:26.834Z,13.80
2022-11-16T01:54:54.942Z,13.80
2022-11-16T01:57:27.710Z,13.80
2022-11-16T01:59:59.018Z,13.90
2022-11-16T02:02:27.915Z,14.00
2022-11-16T02:04:57.080Z,14.00
2022-11-16T02:08:08.211Z,14.00
2022-11-16T02:10:48.454Z,14.10
2022-11-16T02:13:18.235Z,14.20
2022-11-16T02:16:06.072Z,14.20
2022-11-16T02:18:49.509Z,14.20
2022-11-16T02:21:23.269Z,14.30
2022-11-16T02:24:09.259Z,14.30
2022-11-16T02:27:02.271Z,14.30
2022-11-16T02:29:32.563Z,14.30
2022-11-16T02:32:06.857Z,14.40
2022-11-16T02:34:50.877Z,14.40
2022-11-16T02:37:21.905Z,14.40
2022-11-16T02:39:53.193Z,14.40
2022-11-16T02:42:28.166Z,14.40
2022-11-16T02:44:58.458Z,14.40
2022-11-16T02:47:33.271Z,14.40
2022-11-16T02:50:08.805Z,14.40
2022-11-16T02:52:38.216Z,14.40
2022-11-16T02:55:05.378Z,14.40
2022-11-16T02:57:44.211Z,14.40
2022-11-16T03:00:18.505Z,14.30
2022-11-16T03:03:11.050Z,14.30
2022-11-16T03:05:47.769Z,14.30
2022-11-16T03:08:32.966Z,14.20
2022-11-16T03:11:23.240Z,14.20
2022-11-16T03:13:50.878Z,14.20
2022-11-16T03:16:27.845Z,14.20
2022-11-16T03:18:58.346Z,14.10
2022-11-16T03:21:30.633Z,14.10
2022-11-16T03:23:57.947Z,14.10
2022-11-16T03:26:32.047Z,14.10
2022-11-16T03:29:06.368Z,14.10
2022-11-16T03:31:45.493Z,14.10
2022-11-16T03:34:17.560Z,14.10
2022-11-16T03:36:47.657Z,14.00
2022-11-16T03:39:28.070Z,13.90
2022-11-16T03:41:57.112Z,13.90
2022-11-16T03:44:23.946Z,13.90
2022-11-16T03:46:52.453Z,13.90
2022-11-16T03:49:23.471Z,13.90
2022-11-16T03:51:51.136Z,13.90
2022-11-16T03:54:17.936Z,13.90
2022-11-16T03:56:46.102Z,13.80
2022-11-16T03:59:12.784Z,13.80
2022-11-16T04:01:44.569Z,13.90
2022-11-16T04:04:31.877Z,13.90
2022-11-16T04:07:18.251Z,13.90
2022-11-16T04:10:04.928Z,13.90
2022-11-16T04:12:50.626Z,13.90
2022-11-16T04:15:36.107Z,13.80
2022-11-16T04:18:21.423Z,13.90
2022-11-16T04:21:06.934Z,13.80
2022-11-16T04:23:55.339Z,13.80
2022-11-16T04:26:42.114Z,13.80
2022-11-16T04:29:08.879Z,13.90
2022-11-16T04:31:54.385Z,13.90
2022-11-16T04:34:40.016Z,13.90
2022-11-16T04:37:27.619Z,14.00
2022-11-16T04:39:54.649Z,14.00
2022-11-16T04:42:22.877Z,14.00
2022-11-16T04:45:08.038Z,14.10
2022-11-16T04:47:34.945Z,14.10
2022-11-16T04:50:01.774Z,14.20
2022-11-16T04:52:28.450Z,14.10
2022-11-16T04:54:55.152Z,14.20
2022-11-16T04:57:21.902Z,14.20
2022-11-16T04:59:48.797Z,14.10
2022-11-16T05:02:15.552Z,14.10
2022-11-16T05:04:44.306Z,14.10
2022-11-16T05:07:14.307Z,14.00
2022-11-16T05:09:46.559Z,14.00
2022-11-16T05:12:18.926Z,14.00
2022-11-16T05:14:46.315Z,14.00
2022-11-16T05:17:14.121Z,14.00
2022-11-16T05:19:59.317Z,13.90
2022-11-16T05:22:26.750Z,13.90
2022-11-16T05:24:53.664Z,13.90
2022-11-16T05:27:22.030Z,13.90
2022-11-16T05:29:52.123Z,13.90
2022-11-16T05:32:22.916Z,13.90
2022-11-16T05:34:49.961Z,13.90
2022-11-16T05:37:16.985Z,13.90
2022-11-16T05:39:44.078Z,14.00
2022-11-16T05:42:11.006Z,14.00
2022-11-16T05:44:37.887Z,13.90
2022-11-16T05:47:04.758Z,14.00
2022-11-16T05:49:31.678Z,14.00
2022-11-16T05:51:58.434Z,14.00
2022-11-16T05:54:26.506Z,13.90
2022-11-16T05:56:54.581Z,13.90
2022-11-16T05:59:23.494Z,13.90
2022-11-16T06:01:52.956Z,13.90
2022-11-16T06:04:24.588Z,13.90
2022-11-16T06:06:52.383Z,13.90
2022-11-16T06:09:19.230Z,13.90
2022-11-16T06:11:46.958Z,13.90
2022-11-16T06:14:13.768Z,13.90
2022-11-16T06:16:40.501Z,14.00
2022-11-16T06:19:07.205Z,13.90
2022-11-16T06:21:34.159Z,13.90
2022-11-16T06:24:02.679Z,13.90
2022-11-16T06:26:30.625Z,13.90
2022-11-16T06:28:58.662Z,14.00
2022-11-16T06:31:26.389Z,14.00
2022-11-16T06:33:53.118Z,14.00
2022-11-16T06:36:19.845Z,14.00
2022-11-16T06:38:48.461Z,14.00
2022-11-16T06:41:15.487Z,13.90
2022-11-16T06:43:42.645Z,13.90
2022-11-16T06:46:09.619Z,13.90
2022-11-16T06:48:36.668Z,13.90
2022-11-16T06:51:03.700Z,13.90
2022-11-16T06:53:30.412Z,13.90
2022-11-16T06:56:03.444Z,13.80
2022-11-16T06:58:32.094Z,13.80
2022-11-16T07:01:09.082Z,13.80
2022-11-16T07:03:36.073Z,13.70
2022-11-16T07:06:07.835Z,13.60
2022-11-16T07:08:35.152Z,13.60
2022-11-16T07:11:04.525Z,13.50
2022-11-16T07:13:32.648Z,13.50
2022-11-16T07:16:10.974Z,13.40
2022-11-16T07:18:41.321Z,13.30
2022-11-16T07:21:13.410Z,13.30
2022-11-16T07:23:40.511Z,13.30
2022-11-16T07:26:08.492Z,13.30
2022-11-16T07:28:35.696Z,13.30
2022-11-16T07:31:12.149Z,13.20
2022-11-16T07:33:39.265Z,13.20
2022-11-16T07:36:11.977Z,13.20
2022-11-16T07:38:39.390Z,13.20
2022-11-16T07:41:20.103Z,13.20
2022-11-16T07:43:52.808Z,13.20
2022-11-16T07:46:46.068Z,13.30
2022-11-16T07:49:11.763Z,13.30
2022-11-16T07:51:38.551Z,13.30
2022-11-16T07:54:07.365Z,13.40
2022-11-16T07:56:34.127Z,13.40
2022-11-16T07:59:01.607Z,13.50
2022-11-16T08:01:28.530Z,13.50
2022-11-16T08:03:55.422Z,13.60
2022-11-16T08:06:25.512Z,13.70
2022-11-16T08:08:57.811Z,13.80
2022-11-16T08:11:26.004Z,13.90
2022-11-16T08:13:53.645Z,14.10
2022-11-16T08:16:22.512Z,14.00
2022-11-16T08:18:49.655Z,13.90
2022-11-16T08:21:18.339Z,14.00
2022-11-16T08:23:45.566Z,14.00
2022-11-16T08:26:18.363Z,14.10
2022-11-16T08:28:46.938Z,14.00
2022-11-16T08:31:16.823Z,14.10
2022-11-16T08:33:43.655Z,14.10
2022-11-16T08:36:17.449Z,14.20
2022-11-16T08:38:45.491Z,14.30
2022-11-16T08:41:12.623Z,14.50
2022-11-16T08:43:40.494Z,14.40
2022-11-16T08:46:08.418Z,14.40
2022-11-16T08:48:37.274Z,14.50
2022-11-16T08:51:18.567Z,14.60
2022-11-16T08:53:48.204Z,14.60
2022-11-16T08:56:17.559Z,14.80
2022-11-16T08:58:46.948Z,14.90
2022-11-16T09:01:19.323Z,14.90
2022-11-16T09:03:46.677Z,14.90
2022-11-16T09:06:14.608Z,14.80
2022-11-16T09:08:43.936Z,14.80
2022-11-16T09:11:13.851Z,14.80
2022-11-16T09:13:40.502Z,14.80
2022-11-16T09:16:07.457Z,14.80
2022-11-16T09:18:36.222Z,14.80
2022-11-16T09:21:04.046Z,14.70
2022-11-16T09:23:30.786Z,14.70
2022-11-16T09:26:04.337Z,14.70
2022-11-16T09:28:31.864Z,14.70
2022-11-16T09:31:06.123Z,14.70
2022-11-16T09:33:35.101Z,14.70
2022-11-16T09:36:07.121Z,14.70
2022-11-16T09:42:02.214Z,14.70
2022-11-16T09:44:40.449Z,14.80
2022-11-16T09:47:17.870Z,14.80
2022-11-16T09:49:51.925Z,14.80
2022-11-16T09:52:37.530Z,14.90
2022-11-16T09:55:26.853Z,14.90
2022-11-16T09:57:58.601Z,14.90
2022-11-16T10:00:25.666Z,14.90
2022-11-16T10:03:05.484Z,14.90
2022-11-16T10:06:13.522Z,15.00
2022-11-16T10:08:44.462Z,14.90
2022-11-16T10:11:23.474Z,15.00
2022-11-16T10:14:21.925Z,15.00
2022-11-16T10:16:52.592Z,15.00
2022-11-16T10:19:54.668Z,15.10
2022-11-16T10:22:37.163Z,15.10
2022-11-16T10:25:12.218Z,15.10
2022-11-16T10:27:48.850Z,15.10
2022-11-16T10:30:18.650Z,15.20
2022-11-16T10:33:12.694Z,15.20
2022-11-16T10:35:53.094Z,15.30
2022-11-16T10:38:28.034Z,15.30
2022-11-16T10:41:39.523Z,15.30
2022-11-16T10:44:16.902Z,15.30
2022-11-16T10:46:56.166Z,15.30
2022-11-16T10:49:34.024Z,15.30
2022-11-16T10:52:00.805Z,15.30
2022-11-16T10:54:27.534Z,15.30
2022-11-16T10:57:04.520Z,15.20
2022-11-16T11:00:00.836Z,15.30
2022-11-16T11:02:31.363Z,15.30
2022-11-16T11:05:16.997Z,15.30
2022-11-16T11:07:49.475Z,15.30
2022-11-16T11:10:30.428Z,15.30
2022-11-16T11:13:01.793Z,15.40
2022-11-16T11:15:28.846Z,15.40
2022-11-16T11:18:19.376Z,15.40
2022-11-16T11:20:55.040Z,15.40
2022-11-16T11:23:24.403Z,15.40
2022-11-16T11:25:55.197Z,15.30
2022-11-16T11:28:35.119Z,15.30
2022-11-16T11:31:03.904Z,15.30
2022-11-16T11:33:34.534Z,15.30
2022-11-16T11:36:04.386Z,15.30
2022-11-16T11:38:32.434Z,15.40
2022-11-16T11:41:01.141Z,15.30
2022-11-16T11:43:29.466Z,15.30
2022-11-16T11:46:15.330Z,15.40
2022-11-16T11:49:00.148Z,15.40
2022-11-16T11:51:40.974Z,15.40
2022-11-16T11:54:32.174Z,15.40
2022-11-16T11:57:01.021Z,15.40
2022-11-16T11:59:27.985Z,15.40
2022-11-16T12:02:19.323Z,15.30
2022-11-16T12:05:08.003Z,15.40
2022-11-16T12:07:49.483Z,15.40
2022-11-16T12:10:31.136Z,15.40
2022-11-16T12:13:07.071Z,15.30
2022-11-16T12:15:39.742Z,15.30
2022-11-16T12:18:21.547Z,15.30
2022-11-16T12:21:15.834Z,15.40
2022-11-16T12:24:07.055Z,15.40
2022-11-16T12:27:03.809Z,15.40
2022-11-16T12:29:53.039Z,15.40
2022-11-16T12:32:38.013Z,15.40
2022-11-16T12:35:32.632Z,15.50
2022-11-16T12:38:21.787Z,15.60
2022-11-16T12:41:07.862Z,15.50
2022-11-16T12:43:52.757Z,15.50
2022-11-16T12:46:37.684Z,15.50
2022-11-16T12:49:42.988Z,15.50
2022-11-16T12:52:25.189Z,15.50
2022-11-16T12:55:26.765Z,15.50
2022-11-16T12:58:41.508Z,15.50
2022-11-16T13:01:35.463Z,15.50
2022-11-16T13:04:10.143Z,15.60
2022-11-16T13:07:10.431Z,15.60
2022-11-16T13:09:40.744Z,15.60
2022-11-16T13:12:15.483Z,15.60
2022-11-16T13:14:48.079Z,15.50
2022-11-16T13:17:25.108Z,15.50
2022-11-16T13:20:21.997Z,15.50
2022-11-16T13:23:23.410Z,15.40
2022-11-16T13:26:12.478Z,15.40
2022-11-16T13:28:42.780Z,15.40
2022-11-16T13:31:33.419Z,15.40
2022-11-16T13:34:05.599Z,15.40
2022-11-16T13:36:46.135Z,15.40
2022-11-16T13:39:22.631Z,15.40
2022-11-16T13:42:04.766Z,15.50
2022-11-16T13:44:32.339Z,15.40
2022-11-16T13:47:20.260Z,15.50
2022-11-16T13:49:57.104Z,15.60
2022-11-16T13:53:23.477Z,15.60
2022-11-16T13:55:46.473Z,15.60
2022-11-16T13:58:21.031Z,15.60
2022-11-16T14:00:58.266Z,15.60
2022-11-16T14:03:28.992Z,15.50
2022-11-16T14:05:55.857Z,15.50
2022-11-16T14:08:37.228Z,15.40
2022-11-16T14:11:05.851Z,15.40
2022-11-16T14:13:44.141Z,15.30
2022-11-16T14:16:19.671Z,15.30
2022-11-16T14:18:47.119Z,15.20
2022-11-16T14:21:20.597Z,15.20
2022-11-16T14:24:06.394Z,15.20
2022-11-16T14:26:42.401Z,15.20
2022-11-16T14:29:36.928Z,15.20
2022-11-16T14:32:17.113Z,15.20
2022-11-16T14:34:47.475Z,15.20
2022-11-16T14:37:24.451Z,15.20
2022-11-16T14:39:53.654Z,15.10
2022-11-16T14:42:29.897Z,15.10
2022-11-16T14:45:12.124Z,15.10
2022-11-16T14:47:41.536Z,15.10
2022-11-16T14:50:22.289Z,15.10
2022-11-16T14:52:53.124Z,15.10
2022-11-16T14:55:22.753Z,15.20
2022-11-16T14:57:51.523Z,15.10
2022-11-16T15:00:18.449Z,15.10
2022-11-16T15:02:51.758Z,15.20
2022-11-16T15:05:22.318Z,15.20
2022-11-16T15:07:52.717Z,15.20
2022-11-16T15:10:24.538Z,15.20
2022-11-16T15:12:53.930Z,15.10
2022-11-16T15:15:26.863Z,15.10
2022-11-16T15:18:08.240Z,15.00
2022-11-16T15:20:38.505Z,15.00
2022-11-16T15:23:13.088Z,14.90
2022-11-16T15:25:51.797Z,14.80
2022-11-16T15:28:26.051Z,14.90
2022-11-16T15:31:10.665Z,14.90
2022-11-16T15:33:41.375Z,14.80
2022-11-16T15:36:23.727Z,14.90
2022-11-16T15:38:54.566Z,14.70
2022-11-16T15:41:23.059Z,14.70
2022-11-16T15:44:13.990Z,14.80
2022-11-16T15:46:44.190Z,14.80
2022-11-16T15:49:31.988Z,14.90
2022-11-16T15:51:59.422Z,14.90
2022-11-16T15:54:51.901Z,14.90
2022-11-16T15:57:20.813Z,14.90
2022-11-16T15:59:56.029Z,14.90
2022-11-16T16:02:25.998Z,14.90
2022-11-16T16:04:53.118Z,14.90
2022-11-16T16:07:43.344Z,14.80
2022-11-16T16:10:28.448Z,14.80
2022-11-16T16:12:56.384Z,14.80
2022-11-16T16:15:30.634Z,14.70
2022-11-16T16:17:58.990Z,14.60
2022-11-16T16:20:29.488Z,14.50
2022-11-16T16:23:12.793Z,14.40
2022-11-16T16:25:39.889Z,14.40
2022-11-16T16:28:08.601Z,14.30
2022-11-16T16:30:35.859Z,14.30
2022-11-16T16:33:02.765Z,14.30
2022-11-16T16:35:29.491Z,14.40
2022-11-16T16:37:59.211Z,14.40
2022-11-16T16:40:26.716Z,14.40
2022-11-16T16:42:55.663Z,14.50
2022-11-16T16:45:39.113Z,14.50
2022-11-16T16:48:06.855Z,14.50
2022-11-16T16:50:34.986Z,14.50
2022-11-16T16:53:02.957Z,14.50
2022-11-16T16:55:34.304Z,14.50
2022-11-16T16:58:03.793Z,14.50
2022-11-16T17:00:30.830Z,14.40
2022-11-16T17:02:58.531Z,14.40
2022-11-16T17:05:26.480Z,14.40
2022-11-16T17:07:56.461Z,14.40
2022-11-16T17:10:23.228Z,14.30
2022-11-16T17:12:53.197Z,14.30
2022-11-16T17:15:19.962Z,14.30
2022-11-16T17:17:46.987Z,14.30
2022-11-16T17:20:16.111Z,14.30
2022-11-16T17:22:43.191Z,14.30
2022-11-16T17:25:10.994Z,14.40
2022-11-16T17:27:37.704Z,14.30
2022-11-16T17:30:05.163Z,14.30
2022-11-16T17:32:33.167Z,14.30
2022-11-16T17:35:00.007Z,14.30
2022-11-16T17:37:27.085Z,14.30
2022-11-16T17:39:57.172Z,14.30
2022-11-16T17:42:24.178Z,14.20
2022-11-16T17:44:51.291Z,14.20
2022-11-16T17:47:18.116Z,14.10
2022-11-16T17:49:46.894Z,14.10
2022-11-16T17:52:13.731Z,14.10
2022-11-16T17:54:40.584Z,14.10
2022-11-16T17:57:07.560Z,14.10
2022-11-16T17:59:34.615Z,14.00
2022-11-16T18:02:01.326Z,14.00
2022-11-16T18:04:28.162Z,13.90
2022-11-16T18:06:56.339Z,13.90
2022-11-16T18:09:23.069Z,13.90
2022-11-16T18:11:49.910Z,13.90
2022-11-16T18:14:16.886Z,13.80
2022-11-16T18:16:44.803Z,13.90
2022-11-16T18:19:16.898Z,13.90
2022-11-16T18:21:44.294Z,13.90
2022-11-16T18:24:12.060Z,13.80
2022-11-16T18:26:40.730Z,13.80
2022-11-16T18:29:12.216Z,13.80
2022-11-16T18:31:39.188Z,13.70
2022-11-16T18:34:06.726Z,13.80
2022-11-16T18:36:33.827Z,13.80
2022-11-16T18:39:02.867Z,13.70
2022-11-16T18:41:30.270Z,13.70
2022-11-16T18:44:01.914Z,13.60
2022-11-16T18:46:31.375Z,13.60
2022-11-16T18:48:59.033Z,13.60
2022-11-16T18:51:27.621Z,13.60
2022-11-16T18:53:54.818Z,13.70
2022-11-16T18:56:22.318Z,13.60
2022-11-16T18:58:52.436Z,13.70
2022-11-16T19:01:22.018Z,13.60
2022-11-16T19:03:49.262Z,13.60
2022-11-16T19:06:17.829Z,13.50
2022-11-16T19:08:51.803Z,13.50
2022-11-16T19:11:20.937Z,13.50
2022-11-16T19:13:53.844Z,13.50
2022-11-16T19:16:21.738Z,13.40
2022-11-16T19:18:51.179Z,13.50
2022-11-16T19:21:23.088Z,13.40
2022-11-16T19:23:52.957Z,13.40
2022-11-16T19:26:24.202Z,13.40
2022-11-16T19:28:52.375Z,13.40
2022-11-16T19:31:28.658Z,13.30
2022-11-16T19:34:00.620Z,13.30
2022-11-16T19:36:29.012Z,13.20
2022-11-16T19:38:56.236Z,13.10
2022-11-16T19:41:24.257Z,13.10
2022-11-16T19:43:52.857Z,13.10
2022-11-16T19:46:26.883Z,13.10
2022-11-16T19:48:54.939Z,13.10
2022-11-16T19:51:24.441Z,13.10
2022-11-16T19:53:51.363Z,13.10
2022-11-16T19:56:20.183Z,13.00
2022-11-16T19:58:48.802Z,13.00
2022-11-16T20:01:26.538Z,12.90
2022-11-16T20:03:54.700Z,12.90
2022-11-16T20:06:24.573Z,12.90
2022-11-16T20:08:53.892Z,12.90
2022-11-16T20:11:25.730Z,12.90
2022-11-16T20:13:55.521Z,12.90
2022-11-16T20:16:25.384Z,12.90
2022-11-16T20:18:53.791Z,12.90
2022-11-16T20:21:33.288Z,12.90
2022-11-16T20:24:06.493Z,12.90
2022-11-16T20:26:37.947Z,12.90
2022-11-16T20:29:04.682Z,12.90
2022-11-16T20:31:35.397Z,12.90
2022-11-16T20:34:05.183Z,13.00
2022-11-16T20:36:34.694Z,13.00
2022-11-16T20:39:01.558Z,13.00
2022-11-16T20:41:32.620Z,13.10
2022-11-16T20:44:01.105Z,13.10
2022-11-16T20:46:29.793Z,13.10
2022-11-16T20:48:59.399Z,13.10
2022-11-16T20:51:26.552Z,13.20
2022-11-16T20:53:54.655Z,13.20
2022-11-16T20:56:21.638Z,13.20
2022-11-16T20:58:49.388Z,13.20
2022-11-16T21:01:28.469Z,13.10
2022-11-16T21:03:56.436Z,13.20
2022-11-16T21:06:23.416Z,13.20
2022-11-16T21:08:50.230Z,13.20
2022-11-16T21:11:19.438Z,13.10
2022-11-16T21:14:05.933Z,13.10
2022-11-16T21:16:33.580Z,13.10
2022-11-16T21:19:03.772Z,13.10
2022-11-16T21:21:32.296Z,13.10
2022-11-16T21:23:59.140Z,13.10
2022-11-16T21:26:30.786Z,13.10
2022-11-16T21:28:59.124Z,13.00
2022-11-16T21:31:29.723Z,13.10
2022-11-16T21:34:00.704Z,13.00
2022-11-16T21:36:30.242Z,13.00
2022-11-16T21:38:58.165Z,12.90
2022-11-16T21:41:26.287Z,13.00
2022-11-16T21:43:53.479Z,12.90
2022-11-16T21:46:24.808Z,12.90
2022-11-16T21:48:52.851Z,12.90
2022-11-16T21:51:21.522Z,12.90
2022-11-16T21:53:48.635Z,12.90
2022-11-16T21:56:17.378Z,12.90
2022-11-16T21:58:44.608Z,12.80
2022-11-16T22:01:12.487Z,12.80
2022-11-16T22:03:39.687Z,12.80
2022-11-16T22:06:27.020Z,12.80
2022-11-16T22:08:53.816Z,12.80
2022-11-16T22:11:22.991Z,12.80
2022-11-16T22:13:50.256Z,12.70
2022-11-16T22:16:18.616Z,12.70
2022-11-16T22:18:45.524Z,12.70
2022-11-16T22:21:13.319Z,12.80
2022-11-16T22:23:40.695Z,12.70
2022-11-16T22:26:09.998Z,12.80
2022-11-16T22:28:37.525Z,12.70
2022-11-16T22:31:05.810Z,12.80
2022-11-16T22:33:35.564Z,12.80
2022-11-16T22:36:03.026Z,12.80
2022-11-16T22:38:31.311Z,12.80
2022-11-16T22:40:58.009Z,12.80
2022-11-16T22:43:26.930Z,12.80
2022-11-16T22:46:01.687Z,12.80
2022-11-16T22:48:35.015Z,12.80
2022-11-16T22:51:17.798Z,12.80
2022-11-16T22:53:44.608Z,12.80
2022-11-16T22:56:11.860Z,12.80
2022-11-16T22:58:39.144Z,12.90
2022-11-16T23:01:08.554Z,12.80
2022-11-16T23:03:36.210Z,12.90
2022-11-16T23:06:04.155Z,12.80
2022-11-16T23:08:31.801Z,12.80
2022-11-16T23:11:21.128Z,12.80
2022-11-16T23:14:07.981Z,12.90
2022-11-16T23:16:35.376Z,12.80
2022-11-16T23:19:02.591Z,12.90
2022-11-16T23:21:48.173Z,12.80
2022-11-16T23:24:34.399Z,12.80
2022-11-16T23:27:22.098Z,12.80
2022-11-16T23:29:49.154Z,12.80
2022-11-16T23:32:16.024Z,12.80
2022-11-16T23:34:43.751Z,12.80
2022-11-16T23:37:10.462Z,12.80
2022-11-16T23:39:38.347Z,12.70
2022-11-16T23:42:24.674Z,12.70
2022-11-16T23:44:51.358Z,12.70
2022-11-16T23:47:19.798Z,12.60
2022-11-16T23:49:46.774Z,12.50
2022-11-16T23:52:15.031Z,12.60
2022-11-16T23:54:41.702Z,12.50
2022-11-16T23:57:08.539Z,12.50
2022-11-16T23:59:35.311Z,12.50
